SVMC

Details ICAO SVMC (MAR)
Name La Chinita
Region Venezuela
Timezone America/Caracas (UTC-4.0)
Plans Departing 235
Arriving 182
Stats Elevation 234 ft / 71 m (AMSL)
Location 10.558400° -71.728800°
Runways 1
Magnetic Variation 9.679° W
Sunrise 2018-12-17 10:59:09 UTC / 2018-12-17 06:59:09 Local
Sunset 2018-12-17 22:29:36 UTC / 2018-12-17 18:29:36 Local
Advertisement - Login to hide

Runways

ID Width Length Bearing (true/mag) Surface Threshold Overrun Markings Lighting
03 148 ft / 45 m 9,852 ft / 3,003 m 22.67° / 32.35° ASPHALT 0 ft / 0 m 141 ft / 43 m PREC-APP CENTERLINE EDGE THRESHOLD ALSF-I
21 148 ft / 45 m 9,852 ft / 3,003 m 202.67° / 212.35° ASPHALT 0 ft / 0 m 965 ft / 294 m PREC-APP CENTERLINE EDGE THRESHOLD ALSF-I

Map

Weather


0- 5 10 15 20 25 30 35+ Temperature / °C

Clouds and Precipitation
Forecast for 2018-12-17 06:00 UTC. Updated 5 hours ago

Ground ~20,000 ft ~40,000 ft Winds

METAR

Not found

TAF

TAF SVMC 170400Z 1706/1806 00000KT 9999 FEW020 TX34/19Z TN24/09Z BECMG 1706/1710 00000KT CAVOK

Frequencies

Ground 121.90 MHz
Tower 118.90 MHz
Warning: Do not use this data for real-world aviation or navigation. No guarantee of current accuracy is given.